METAR AND TAF INFORMATION
METAR FOR PGUM
ADDS - METARS form results

(0028 UTC 17 December 2017)
Data provider http://aviationweather.gov/adds/metars/
 
METAR text: PGUM 170016Z 08019G23KT 10SM FEW019 SCT026 BKN044 29/26 A2989 RMK AO2 T02890256
Conditions at: PGUM (AGANA , GU, US) observed 0016 UTC 17 December 2017
Temperature: 28.9°C (84°F)
Dewpoint: 25.6°C (78°F) [RH = 82%]
Pressure (altimeter): 29.89 inches Hg (1012.3 mb)
Winds: from the E (80 degrees) at 22 MPH (19 knots; 9.9 m/s)
gusting to 26 MPH (23 knots; 12.0 m/s)
Visibility: 10 or more miles (16+ km)
Ceiling: 4400 feet AGL
Clouds: few clouds at 1900 feet AGL
scattered clouds at 2600 feet AGL
broken clouds at 4400 feet AGL
Weather: no significant weather observed at this time

METAR text: PGUM 170007Z 08018G23KT 10SM SCT018 BKN025 BKN043 29/26 A2989 RMK AO2 T02890256
Conditions at: PGUM (AGANA , GU, US) observed 0007 UTC 17 December 2017
Temperature: 28.9°C (84°F)
Dewpoint: 25.6°C (78°F) [RH = 82%]
Pressure (altimeter): 29.89 inches Hg (1012.3 mb)
Winds: from the E (80 degrees) at 21 MPH (18 knots; 9.4 m/s)
gusting to 26 MPH (23 knots; 12.0 m/s)
Visibility: 10 or more miles (16+ km)
Ceiling: 2500 feet AGL
Clouds: scattered clouds at 1800 feet AGL
broken clouds at 2500 feet AGL
broken clouds at 4300 feet AGL
Weather: no significant weather observed at this time

METAR text: PGUM 162354Z 08015G20KT 10SM FEW019 SCT023 SCT045 29/26 A2989 RMK AO2 SLP115 60001 T02890261 10294 20272 51014
Conditions at: PGUM (AGANA , GU, US) observed 2354 UTC 16 December 2017
Temperature: 28.9°C (84°F)
Dewpoint: 26.1°C (79°F) [RH = 85%]
Pressure (altimeter): 29.89 inches Hg (1012.3 mb)
[Sea-level pressure: 1011.5 mb]
Winds: from the E (80 degrees) at 17 MPH (15 knots; 7.8 m/s)
gusting to 23 MPH (20 knots; 10.4 m/s)
Visibility: 10 or more miles (16+ km)
Ceiling: at least 12,000 feet AGL
Clouds: few clouds at 1900 feet AGL
scattered clouds at 2300 feet AGL
scattered clouds at 4500 feet AGL
Weather: no significant weather observed at this time

Forecast for: PGUM (AGANA , GU, US)
Text: PGUM 162341Z 1700/1806 08016G22KT P6SM VCSH SCT018 BKN140
Forecast period: 0000 to 0900 UTC 17 December 2017
Forecast type: FROM: standard forecast or significant change
Winds: from the E (80 degrees) at 18 MPH (16 knots; 8.3 m/s)
gusting to 25 MPH (22 knots; 11.4 m/s)
Visibility: 6 or more miles (10+ km)
Ceiling: 14000 feet AGL
Clouds: scattered clouds at 1800 feet AGL
broken clouds at 14000 feet AGL
Weather: VCSH  (showers in vicinity)
Text: FM170900 08007KT P6SM VCSH FEW018 SCT040 SCT140 WS020/08027KT
Forecast period: 0900 UTC 17 December 2017 to 0600 UTC 18 December 2017
Forecast type: FROM: standard forecast or significant change
Winds: from the E (80 degrees) at 8 MPH (7 knots; 3.6 m/s)
Visibility: 6 or more miles (10+ km)
Clouds: few clouds at 1800 feet AGL
scattered clouds at 4000 feet AGL
scattered clouds at 14000 feet AGL
Wind shear: at 2000 feet ( 610 m) AGL, from the E (80 degrees) at 31 MPH (27 knots; 14.0 m/s)
Weather: VCSH  (showers in vicinity)

 AIRPORT MAP

 RUNWAY INFORMATION
Runway 06L Runway length 10015 ft Runway width 150 ft
Runway elevation 239 ft Runway displaced threshold 0 ft Runway heading 65
Runway 24R Runway length 10015 ft Runway width 150 ft
Runway elevation 297 ft Runway displaced threshold 0 ft Runway heading 245
Runway 06R Runway length 8001 ft Runway width 150 ft
Runway elevation 231 ft Runway displaced threshold 0 ft Runway heading 65
Runway 24L Runway length 8001 ft Runway width 150 ft
Runway elevation 284 ft Runway displaced threshold 0 ft Runway heading 245

 AIRPORT FREQUENCIES
Type A/D Name APP/DEP Frequency 118.7 MHZ
Type ARTC Name GUAM CERAP Frequency 120.5 MHZ
Type ATIS Name ATIS Frequency 119 MHZ
Type CLD Name CLNC DEL Frequency 121.9 MHZ
Type GND Name GND Frequency 121.9 MHZ
Type RMP Name RAMP Frequency 121.6 MHZ
Type TWR Name AGANA TWR Frequency 118.1 MHZ

 AIRPORT NEAR NAVIGATION AIDS
Type NDB Name Mt Macajna Frequency 385 KHZ
Type VORTAC Name Nimitz Frequency 115300 KHZ



Powered by Virtual Airlines Manager [v2.6.2]